Time;durP1;ratioP1;P1;durP2;ratioP2;P2;SDS_P1;SDS_P2;PMS_P1;PMS_P2;Temp;Humidity;BMP_temperature;BMP_pressure;BME280_temperature;BME280_humidity;BME280_pressure;Samples;Min_cycle;Max_cycle;Signal;HPM_P1;HPM_P2
2023/09/30 00:01:43;;;;;;;16.60;9.70;;;;;;;17.89;71.75;100788.11;105901;1260;97950;-82
2023/09/30 00:04:29;;;;;;;21.50;12.60;;;;;;;17.90;72.12;100790.30;105805;1266;97801;-82
2023/09/30 00:07:15;;;;;;;18.00;10.70;;;;;;;17.89;72.64;100789.48;106011;1264;101440;-82
2023/09/30 00:10:01;;;;;;;21.00;11.40;;;;;;;17.89;73.62;100797.05;105942;1266;99091;-82
2023/09/30 00:12:46;;;;;;;18.80;11.60;;;;;;;17.89;73.93;100804.52;106093;1267;98764;-83
2023/09/30 00:15:35;;;;;;;17.20;10.40;;;;;;;17.89;73.87;100792.83;105810;1261;98846;-82
2023/09/30 00:18:21;;;;;;;16.30;11.50;;;;;;;17.87;74.38;100788.02;106007;1260;97974;-84
2023/09/30 00:21:07;;;;;;;19.10;11.10;;;;;;;17.85;74.79;100789.95;106010;1261;101353;-83
2023/09/30 00:23:52;;;;;;;16.70;11.30;;;;;;;17.84;75.02;100786.84;106043;1263;99177;-83
2023/09/30 00:26:38;;;;;;;14.20;10.50;;;;;;;17.84;75.59;100789.05;105936;1260;98805;-83
2023/09/30 00:29:23;;;;;;;18.00;12.00;;;;;;;17.84;76.07;100789.47;105938;1263;98093;-82
2023/09/30 00:32:09;;;;;;;17.00;11.60;;;;;;;17.82;76.58;100785.37;106155;1261;98497;-82
2023/09/30 00:34:55;;;;;;;16.00;12.00;;;;;;;17.79;76.58;100789.45;105700;1261;102131;-83
2023/09/30 00:37:41;;;;;;;18.50;12.20;;;;;;;17.76;77.21;100792.04;105766;1267;99096;-82
2023/09/30 00:40:26;;;;;;;22.50;11.50;;;;;;;17.73;77.42;100787.88;105859;1260;99077;-83
2023/09/30 00:43:18;;;;;;;15.90;11.20;;;;;;;17.70;77.63;100785.36;105948;1264;97878;-82
2023/09/30 00:46:22;;;;;;;17.40;10.90;;;;;;;17.66;77.78;100782.27;105920;1264;96414;-82
2023/09/30 00:49:10;;;;;;;14.20;11.40;;;;;;;17.65;78.11;100785.96;105892;1260;102768;-81
2023/09/30 00:51:56;;;;;;;15.00;10.30;;;;;;;17.62;78.07;100784.51;105953;1261;99156;-82
2023/09/30 00:54:43;;;;;;;17.00;10.50;;;;;;;17.61;77.74;100784.02;106005;1264;98379;-82
2023/09/30 00:57:30;;;;;;;15.00;10.90;;;;;;;17.62;77.52;100783.83;105872;1267;98719;-83
2023/09/30 01:00:16;;;;;;;17.10;10.50;;;;;;;17.63;77.59;100782.83;106022;1264;98067;-82
2023/09/30 01:03:03;;;;;;;17.00;10.80;;;;;;;17.63;77.76;100782.03;105977;1260;102744;-82
2023/09/30 01:05:49;;;;;;;17.50;10.70;;;;;;;17.64;77.41;100779.89;105774;1264;100199;-83
2023/09/30 01:08:35;;;;;;;19.30;11.10;;;;;;;17.66;77.21;100784.32;105842;1263;98813;-83
2023/09/30 01:11:21;;;;;;;16.70;12.10;;;;;;;17.65;77.49;100780.67;106022;1263;97976;-81
2023/09/30 01:14:27;;;;;;;17.50;11.20;;;;;;;17.66;77.90;100781.57;105833;1264;98094;-83
2023/09/30 01:17:13;;;;;;;15.80;10.80;;;;;;;17.65;77.80;100780.95;105784;1265;101525;-82
2023/09/30 01:20:00;;;;;;;20.20;12.00;;;;;;;17.66;77.87;100779.16;105728;1267;99178;-82
2023/09/30 01:22:45;;;;;;;17.50;11.50;;;;;;;17.66;77.63;100778.96;105695;1265;97975;-82
2023/09/30 01:25:33;;;;;;;25.00;11.60;;;;;;;17.65;77.36;100774.97;105846;1260;98152;-82
2023/09/30 01:28:18;;;;;;;17.40;12.10;;;;;;;17.63;77.57;100773.67;106758;1261;95997;-82
2023/09/30 01:31:05;;;;;;;24.30;11.60;;;;;;;17.63;77.38;100771.25;105897;1260;101325;-82
2023/09/30 01:33:54;;;;;;;25.20;11.50;;;;;;;17.63;77.25;100774.88;105806;1260;99194;-83
2023/09/30 01:36:39;;;;;;;18.20;12.10;;;;;;;17.62;77.52;100771.59;105786;1267;97926;-83
2023/09/30 01:39:25;;;;;;;16.80;11.30;;;;;;;17.61;77.46;100769.14;105650;1266;97971;-81
2023/09/30 01:42:11;;;;;;;13.30;10.60;;;;;;;17.61;77.40;100767.22;106469;1261;97967;-82
2023/09/30 01:44:57;;;;;;;16.30;11.50;;;;;;;17.62;77.31;100764.77;105882;1260;101465;-82
2023/09/30 01:47:43;;;;;;;17.00;10.90;;;;;;;17.62;77.34;100761.41;105954;1263;100495;-82
2023/09/30 01:50:28;;;;;;;20.50;11.50;;;;;;;17.61;77.84;100758.08;105867;1263;97916;-81
2023/09/30 01:53:14;;;;;;;17.30;11.70;;;;;;;17.61;78.07;100761.44;106008;1261;99173;-82
2023/09/30 01:56:00;;;;;;;16.70;11.70;;;;;;;17.61;78.12;100770.80;105858;1261;98505;-81
2023/09/30 01:58:46;;;;;;;15.10;10.90;;;;;;;17.61;78.04;100766.35;105826;1260;102615;-82
2023/09/30 02:01:31;;;;;;;16.90;11.40;;;;;;;17.61;78.10;100766.80;105799;1266;99196;-82
2023/09/30 02:04:17;;;;;;;21.00;12.00;;;;;;;17.61;77.97;100766.14;105849;1260;97998;-82
2023/09/30 02:07:02;;;;;;;21.60;12.00;;;;;;;17.60;78.22;100765.48;105798;1262;98195;-83
2023/09/30 02:09:48;;;;;;;16.20;11.20;;;;;;;17.60;78.34;100762.49;105828;1260;98365;-82
2023/09/30 02:12:35;;;;;;;17.40;10.70;;;;;;;17.60;78.39;100764.11;105916;1267;102627;-83
2023/09/30 02:15:21;;;;;;;18.10;11.40;;;;;;;17.60;78.42;100766.64;105818;1261;100697;-82
2023/09/30 02:18:06;;;;;;;19.70;11.00;;;;;;;17.59;78.53;100766.73;105818;1261;99202;-81
2023/09/30 02:20:53;;;;;;;20.90;11.70;;;;;;;17.58;78.54;100765.73;105880;1262;97965;-84
2023/09/30 02:23:38;;;;;;;16.90;11.40;;;;;;;17.57;79.07;100764.02;106082;1260;97957;-82
2023/09/30 02:26:25;;;;;;;18.80;11.80;;;;;;;17.57;79.45;100762.27;105835;1264;101366;-82
2023/09/30 02:29:11;;;;;;;16.80;10.90;;;;;;;17.55;79.85;100765.19;105868;1260;99345;-82
2023/09/30 02:31:56;;;;;;;19.30;11.80;;;;;;;17.53;79.96;100762.50;105848;1260;99000;-82
2023/09/30 02:34:44;;;;;;;17.20;11.00;;;;;;;17.52;80.64;100765.29;106064;1260;98047;-82
2023/09/30 02:37:37;;;;;;;16.20;11.40;;;;;;;17.50;81.05;100762.48;105989;1260;98509;-83
2023/09/30 02:40:24;;;;;;;23.10;11.70;;;;;;;17.49;81.42;100755.30;105907;1260;101343;-83
2023/09/30 02:43:09;;;;;;;19.30;11.80;;;;;;;17.47;81.32;100752.33;105801;1263;99084;-82
2023/09/30 02:45:55;;;;;;;16.80;11.90;;;;;;;17.45;82.07;100751.36;105778;1264;99074;-81
2023/09/30 02:48:41;;;;;;;21.50;11.70;;;;;;;17.44;82.35;100746.70;105822;1267;97975;-82
2023/09/30 02:51:27;;;;;;;22.30;12.10;;;;;;;17.41;82.34;100745.55;105950;1261;98505;-83
2023/09/30 02:54:16;;;;;;;16.60;12.70;;;;;;;17.36;82.47;100742.48;106006;1261;102540;-82
2023/09/30 02:57:03;;;;;;;19.80;11.70;;;;;;;17.32;82.51;100740.10;105747;1264;99206;-82
2023/09/30 02:59:51;;;;;;;21.90;12.40;;;;;;;17.33;82.71;100739.31;105796;1263;99008;-83
2023/09/30 03:02:37;;;;;;;16.20;11.90;;;;;;;17.31;82.75;100739.91;105621;1260;97990;-83
2023/09/30 03:05:23;;;;;;;18.90;12.10;;;;;;;17.30;82.84;100740.81;105745;1261;97990;-82
2023/09/30 03:08:08;;;;;;;17.10;12.00;;;;;;;17.28;82.80;100742.04;105970;1260;101357;-81
2023/09/30 03:10:54;;;;;;;16.40;11.70;;;;;;;17.25;82.81;100743.23;105769;1261;99176;-82
2023/09/30 03:13:42;;;;;;;20.90;12.00;;;;;;;17.24;83.16;100745.88;105800;1261;98093;-82
2023/09/30 03:16:27;;;;;;;14.40;11.30;;;;;;;17.22;83.12;100747.61;105849;1260;98723;-83
2023/09/30 03:19:16;;;;;;;16.00;12.70;;;;;;;17.21;83.21;100746.83;105893;1260;97964;-82
2023/09/30 03:22:05;;;;;;;14.60;11.30;;;;;;;17.23;83.27;100748.77;105675;1261;101352;-83
2023/09/30 03:24:53;;;;;;;21.70;12.30;;;;;;;17.24;83.54;100749.54;105756;1261;100580;-82
2023/09/30 03:27:40;;;;;;;19.00;12.50;;;;;;;17.24;83.49;100747.71;105759;1260;99265;-82
2023/09/30 03:30:26;;;;;;;18.20;11.50;;;;;;;17.24;83.63;100747.70;105773;1260;97996;-84
2023/09/30 03:33:12;;;;;;;18.90;11.80;;;;;;;17.24;83.90;100750.54;105871;1265;98445;-83
2023/09/30 03:35:58;;;;;;;16.50;12.00;;;;;;;17.24;83.95;100751.40;105808;1260;103312;-82
2023/09/30 03:38:44;;;;;;;15.80;12.20;;;;;;;17.23;84.00;100745.89;105743;1265;100455;-83
2023/09/30 03:41:31;;;;;;;16.00;12.00;;;;;;;17.20;83.76;100751.13;105698;1264;99448;-83
2023/09/30 03:44:17;;;;;;;21.00;11.80;;;;;;;17.19;83.78;100751.27;105740;1265;97882;-82
2023/09/30 03:47:03;;;;;;;18.80;11.50;;;;;;;17.20;83.85;100747.55;105736;1260;99332;-83
2023/09/30 03:49:49;;;;;;;13.90;11.30;;;;;;;17.21;84.04;100743.84;105884;1260;101479;-82
2023/09/30 03:52:34;;;;;;;17.30;11.60;;;;;;;17.22;84.09;100740.83;105951;1260;99147;-84
2023/09/30 03:55:20;;;;;;;15.60;11.60;;;;;;;17.22;83.98;100740.36;105884;1260;98632;-83
2023/09/30 03:58:06;;;;;;;18.30;11.60;;;;;;;17.22;83.96;100737.86;105912;1267;97872;-82
2023/09/30 04:00:54;;;;;;;15.30;10.80;;;;;;;17.22;84.14;100739.15;105878;1260;97978;-83
2023/09/30 04:03:41;;;;;;;13.40;11.10;;;;;;;17.21;84.18;100734.91;105825;1262;102255;-82
2023/09/30 04:06:29;;;;;;;16.50;11.70;;;;;;;17.22;84.38;100734.36;106006;1261;100239;-83
2023/09/30 04:09:16;;;;;;;15.80;10.90;;;;;;;17.22;84.83;100735.73;105602;1260;97972;-80
2023/09/30 04:12:01;;;;;;;14.30;10.90;;;;;;;17.21;84.98;100732.20;105623;1260;97991;-81
2023/09/30 04:14:48;;;;;;;14.00;10.50;;;;;;;17.21;85.16;100729.70;105621;1261;98438;-82
2023/09/30 04:17:33;;;;;;;14.60;11.70;;;;;;;17.21;85.33;100726.72;105747;1260;101426;-81
2023/09/30 04:20:23;;;;;;;15.80;11.70;;;;;;;17.20;85.39;100724.43;105746;1264;99146;-84
2023/09/30 04:23:10;;;;;;;12.60;11.00;;;;;;;17.20;85.61;100721.55;105580;1259;98551;-81
2023/09/30 04:25:55;;;;;;;18.00;11.50;;;;;;;17.18;86.08;100720.04;105551;1263;98062;-82
2023/09/30 04:28:41;;;;;;;16.20;11.70;;;;;;;17.18;86.28;100720.30;105542;1261;98470;-84
2023/09/30 04:31:30;;;;;;;15.00;11.20;;;;;;;17.16;86.20;100724.02;105619;1261;102711;-81
2023/09/30 04:34:15;;;;;;;15.90;11.50;;;;;;;17.14;86.18;100723.21;105657;1264;100270;-81
2023/09/30 04:37:01;;;;;;;15.20;10.90;;;;;;;17.13;86.15;100721.02;105637;1264;98033;-81
2023/09/30 04:39:47;;;;;;;14.30;11.20;;;;;;;17.12;86.22;100718.77;105600;1261;98723;-81
2023/09/30 04:42:38;;;;;;;17.00;11.50;;;;;;;17.11;86.70;100716.54;105751;1260;99231;-83
2023/09/30 04:45:26;;;;;;;17.70;11.40;;;;;;;17.11;86.93;100718.08;105804;1263;101362;-82
2023/09/30 04:48:12;;;;;;;16.90;11.50;;;;;;;17.10;87.29;100720.30;105685;1263;100404;-85
2023/09/30 04:51:12;;;;;;;16.10;11.00;;;;;;;17.07;87.46;100718.67;105712;1265;99413;-84
2023/09/30 04:53:59;;;;;;;16.30;12.10;;;;;;;17.03;87.78;100725.09;105737;1260;97984;-82
2023/09/30 04:56:47;;;;;;;15.70;12.00;;;;;;;17.00;88.17;100727.95;106089;1264;97888;-81
2023/09/30 04:59:34;;;;;;;14.00;11.40;;;;;;;16.98;88.26;100730.42;105651;1264;101365;-83
2023/09/30 05:02:19;;;;;;;12.90;10.90;;;;;;;16.98;88.59;100736.58;105706;1260;99179;-81
2023/09/30 05:05:06;;;;;;;16.30;11.50;;;;;;;16.98;88.84;100742.22;105869;1260;98113;-82
2023/09/30 05:07:52;;;;;;;18.80;10.80;;;;;;;16.98;89.02;100746.34;105701;1264;97907;-84
2023/09/30 05:10:38;;;;;;;12.90;10.70;;;;;;;16.98;89.13;100745.92;105758;1260;97962;-83
2023/09/30 05:13:27;;;;;;;13.70;11.30;;;;;;;17.00;89.25;100753.60;105605;1260;102651;-83
2023/09/30 05:16:14;;;;;;;17.50;10.50;;;;;;;16.99;89.40;100759.36;105660;1260;100408;-83
2023/09/30 05:18:59;;;;;;;29.50;12.00;;;;;;;16.97;89.54;100764.70;105744;1261;97990;-82
2023/09/30 05:21:45;;;;;;;18.80;10.40;;;;;;;16.95;89.65;100771.77;105674;1264;98083;-83
2023/09/30 05:24:31;;;;;;;16.30;9.70;;;;;;;16.96;90.17;100773.84;105651;1262;99781;-82
2023/09/30 05:27:16;;;;;;;11.50;9.60;;;;;;;16.96;90.55;100778.88;105642;1267;101459;-82
2023/09/30 05:30:03;;;;;;;13.50;10.00;;;;;;;16.96;90.78;100781.16;105784;1264;99919;-83
2023/09/30 05:32:52;;;;;;;12.50;9.60;;;;;;;16.97;91.03;100783.71;105641;1260;99667;-82
2023/09/30 05:35:38;;;;;;;13.60;9.70;;;;;;;16.99;91.60;100785.29;105590;1261;98076;-83
2023/09/30 05:38:24;;;;;;;14.40;10.30;;;;;;;17.00;92.04;100792.56;105866;1263;97865;-83
2023/09/30 05:41:11;;;;;;;12.90;10.70;;;;;;;17.01;92.39;100796.05;105808;1260;110024;-84
2023/09/30 05:43:58;;;;;;;13.60;10.00;;;;;;;17.01;92.76;100800.02;105748;1259;100393;-82
2023/09/30 05:46:45;;;;;;;13.40;9.80;;;;;;;17.01;92.96;100802.39;105725;1264;98867;-83
2023/09/30 05:49:30;;;;;;;12.70;9.20;;;;;;;17.01;93.63;100800.73;105746;1264;98053;-84
2023/09/30 05:52:16;;;;;;;15.90;10.30;;;;;;;17.01;93.63;100797.30;105749;1261;98063;-83
2023/09/30 05:55:04;;;;;;;14.90;10.50;;;;;;;17.01;93.80;100794.77;105734;1260;101374;-84
2023/09/30 05:57:50;;;;;;;13.30;10.70;;;;;;;17.02;94.22;100794.47;105638;1262;99115;-81
2023/09/30 06:00:35;;;;;;;11.90;10.30;;;;;;;17.03;94.26;100795.46;105745;1261;99690;-82
2023/09/30 06:03:21;;;;;;;12.90;10.70;;;;;;;17.04;94.44;100799.12;105685;1262;98186;-82
2023/09/30 06:06:15;;;;;;;14.40;10.60;;;;;;;17.05;94.77;100798.55;105734;1260;98949;-83
2023/09/30 06:09:01;;;;;;;16.50;11.00;;;;;;;17.06;95.05;100796.58;105604;1261;101391;-82
2023/09/30 06:11:47;;;;;;;14.30;10.80;;;;;;;17.07;95.43;100795.45;105691;1267;99123;-83
2023/09/30 06:14:35;;;;;;;11.80;10.40;;;;;;;17.09;95.56;100799.02;105678;1263;98078;-81
2023/09/30 06:17:22;;;;;;;16.20;11.20;;;;;;;17.10;95.82;100805.59;105598;1260;97905;-82
2023/09/30 06:20:09;;;;;;;16.20;12.10;;;;;;;17.11;96.01;100805.95;105876;1261;98439;-83
2023/09/30 06:22:54;;;;;;;17.10;11.10;;;;;;;17.13;96.28;100809.80;105804;1261;102972;-82
2023/09/30 06:25:41;;;;;;;14.60;10.90;;;;;;;17.14;96.51;100813.80;105880;1262;99270;-83
2023/09/30 06:28:28;;;;;;;16.30;11.30;;;;;;;17.14;96.59;100811.88;105875;1263;98836;-82
2023/09/30 06:31:15;;;;;;;15.40;11.20;;;;;;;17.14;96.66;100818.48;105652;1260;98057;-80
2023/09/30 06:34:00;;;;;;;14.10;11.20;;;;;;;17.16;96.98;100818.06;105855;1261;99666;-82
2023/09/30 06:36:46;;;;;;;12.70;11.20;;;;;;;17.17;97.27;100817.38;105707;1267;101324;-83
2023/09/30 06:39:31;;;;;;;19.20;12.20;;;;;;;17.18;97.36;100824.08;105837;1261;100709;-84
2023/09/30 06:42:17;;;;;;;16.50;11.80;;;;;;;17.18;97.59;100824.70;105879;1260;97987;-85
2023/09/30 06:45:05;;;;;;;16.20;12.50;;;;;;;17.20;97.90;100830.21;105763;1260;97973;-82
2023/09/30 06:47:51;;;;;;;14.70;11.90;;;;;;;17.23;98.27;100827.11;105710;1260;130819;-84
2023/09/30 06:50:37;;;;;;;18.60;12.90;;;;;;;17.24;98.50;100825.59;105695;1260;102700;-81
2023/09/30 06:53:23;;;;;;;14.90;12.40;;;;;;;17.27;98.56;100829.23;105739;1264;99264;-83
2023/09/30 06:56:09;;;;;;;17.60;13.00;;;;;;;17.29;98.84;100833.36;105868;1260;106494;-83
2023/09/30 06:58:54;;;;;;;16.30;13.80;;;;;;;17.33;99.10;100836.07;105753;1261;98009;-82
2023/09/30 07:01:40;;;;;;;17.20;13.70;;;;;;;17.37;99.28;100835.24;105726;1261;98440;-84
2023/09/30 07:04:26;;;;;;;19.40;14.90;;;;;;;17.43;99.42;100839.16;105822;1260;101508;-83
2023/09/30 07:07:12;;;;;;;17.30;14.10;;;;;;;17.49;99.80;100842.48;105810;1260;100320;-83
2023/09/30 07:09:57;;;;;;;19.30;13.70;;;;;;;17.56;99.94;100842.83;105976;1263;99332;-82
2023/09/30 07:12:42;;;;;;;17.70;14.00;;;;;;;17.63;99.98;100838.55;105769;1266;98083;-83
2023/09/30 07:15:29;;;;;;;16.70;14.20;;;;;;;17.72;100.00;100838.81;105931;1260;98424;-84
2023/09/30 07:18:15;;;;;;;17.60;14.90;;;;;;;17.80;100.00;100839.72;106010;1264;101536;-82
2023/09/30 07:21:01;;;;;;;21.80;16.30;;;;;;;17.87;100.00;100838.29;105806;1261;99093;-84
2023/09/30 07:23:48;;;;;;;22.30;15.20;;;;;;;17.93;100.00;100839.01;105859;1260;97917;-81
2023/09/30 07:26:33;;;;;;;20.70;15.10;;;;;;;17.98;100.00;100849.65;105766;1261;97892;-82
2023/09/30 07:29:18;;;;;;;17.70;14.30;;;;;;;18.02;100.00;100854.98;105927;1260;97949;-82
2023/09/30 07:32:04;;;;;;;20.10;15.20;;;;;;;18.06;100.00;100856.55;105706;1261;102734;-81
2023/09/30 07:34:51;;;;;;;17.10;14.30;;;;;;;18.11;100.00;100856.89;105756;1260;100588;-84
2023/09/30 07:37:37;;;;;;;19.40;15.00;;;;;;;18.15;100.00;100852.13;105754;1264;99061;-84
2023/09/30 07:40:22;;;;;;;20.40;15.70;;;;;;;18.19;100.00;100853.39;105851;1266;97895;-83
2023/09/30 07:43:08;;;;;;;19.70;16.50;;;;;;;18.25;100.00;100852.57;105643;1261;98552;-83
2023/09/30 07:45:54;;;;;;;18.70;16.20;;;;;;;18.29;100.00;100855.85;105809;1261;102567;-82
2023/09/30 07:48:39;;;;;;;18.30;16.30;;;;;;;18.33;100.00;100856.17;106151;1263;100389;-81
2023/09/30 07:51:25;;;;;;;26.10;16.20;;;;;;;18.37;100.00;100857.90;105798;1260;97982;-82
2023/09/30 07:54:11;;;;;;;20.90;15.20;;;;;;;18.39;100.00;100860.22;105855;1260;98058;-82
2023/09/30 07:56:57;;;;;;;21.40;16.30;;;;;;;18.39;100.00;100860.67;105883;1262;98551;-82
2023/09/30 07:59:43;;;;;;;19.90;16.00;;;;;;;18.40;100.00;100864.54;105933;1264;101497;-82
2023/09/30 08:02:33;;;;;;;21.70;16.40;;;;;;;18.40;100.00;100868.44;105959;1261;99128;-81
2023/09/30 08:05:19;;;;;;;21.40;16.70;;;;;;;18.40;100.00;100870.28;106209;1261;97972;-84
2023/09/30 08:08:05;;;;;;;18.00;15.50;;;;;;;18.41;100.00;100875.86;106028;1261;98078;-82
2023/09/30 08:10:55;;;;;;;20.00;15.90;;;;;;;18.44;100.00;100879.48;105985;1263;98519;-88
2023/09/30 08:13:41;;;;;;;19.10;16.10;;;;;;;18.45;100.00;100884.22;106319;1260;102721;-82
2023/09/30 08:16:26;;;;;;;19.80;16.70;;;;;;;18.46;100.00;100884.13;106082;1260;108099;-86
2023/09/30 08:19:12;;;;;;;19.90;16.10;;;;;;;18.47;100.00;100888.34;106088;1264;97987;-87
2023/09/30 08:21:58;;;;;;;19.00;15.60;;;;;;;18.47;100.00;100886.50;105936;1266;97882;-86
2023/09/30 08:24:44;;;;;;;19.70;15.60;;;;;;;18.46;100.00;100893.23;106015;1260;97949;-86
2023/09/30 08:27:29;;;;;;;21.50;14.50;;;;;;;18.45;100.00;100893.89;105878;1260;101465;-83
2023/09/30 08:30:15;;;;;;;18.60;16.40;;;;;;;18.45;100.00;100895.74;105844;1260;100133;-84
2023/09/30 08:33:07;;;;;;;17.50;15.00;;;;;;;18.46;100.00;100902.58;105820;1261;97969;-84
2023/09/30 08:35:52;;;;;;;21.80;14.80;;;;;;;18.44;100.00;100906.09;105800;1260;98465;-83
2023/09/30 08:38:40;;;;;;;21.00;15.00;;;;;;;18.44;100.00;100906.27;105836;1260;97907;-83
2023/09/30 08:41:33;;;;;;;21.20;16.30;;;;;;;18.43;100.00;100910.32;105757;1260;102967;-83
2023/09/30 08:44:19;;;;;;;20.30;15.70;;;;;;;18.42;100.00;100915.16;106497;1264;99846;-83
2023/09/30 08:47:09;;;;;;;20.00;16.40;;;;;;;18.41;100.00;100913.50;105614;1263;99068;-83
2023/09/30 08:50:05;;;;;;;22.20;16.10;;;;;;;18.39;100.00;100918.21;105684;1264;98154;-84
2023/09/30 08:52:52;;;;;;;21.20;17.40;;;;;;;18.37;100.00;100925.86;105687;1260;98510;-83
2023/09/30 08:55:41;;;;;;;26.00;17.40;;;;;;;18.35;100.00;100932.16;105702;1266;102025;-83
2023/09/30 08:58:28;;;;;;;23.90;17.10;;;;;;;18.33;100.00;100934.59;105615;1264;100357;-82
2023/09/30 09:01:15;;;;;;;21.10;15.50;;;;;;;18.33;100.00;100941.58;105536;1264;99381;-84
2023/09/30 09:04:00;;;;;;;29.80;17.20;;;;;;;18.32;100.00;100946.34;105532;1264;97994;-82
2023/09/30 09:06:45;;;;;;;23.40;15.00;;;;;;;18.30;100.00;100949.91;105739;1261;99679;-84
2023/09/30 09:09:32;;;;;;;18.20;14.10;;;;;;;18.28;100.00;100951.48;105588;1277;102681;-83
2023/09/30 09:12:20;;;;;;;18.10;11.90;;;;;;;18.27;100.00;100951.12;105534;1264;99071;-83
2023/09/30 09:15:08;;;;;;;16.40;12.00;;;;;;;18.26;100.00;100954.93;105661;1260;99342;-83
2023/09/30 09:17:53;;;;;;;13.40;8.50;;;;;;;18.24;100.00;100958.04;105694;1276;98087;-83
2023/09/30 09:20:39;;;;;;;18.60;7.10;;;;;;;18.21;100.00;100960.67;105668;1264;96206;-82
2023/09/30 09:23:24;;;;;;;10.20;6.30;;;;;;;18.18;100.00;100963.72;105553;1264;101423;-84
2023/09/30 09:26:11;;;;;;;14.50;5.90;;;;;;;18.15;100.00;100963.63;105675;1265;99914;-83
2023/09/30 09:28:58;;;;;;;9.30;4.80;;;;;;;18.12;100.00;100966.09;105532;1264;98989;-83
2023/09/30 09:31:44;;;;;;;7.20;4.20;;;;;;;18.07;100.00;100972.40;105525;1262;98163;-83
2023/09/30 09:34:29;;;;;;;7.60;3.20;;;;;;;18.03;100.00;100976.28;105520;1264;98003;-83
2023/09/30 09:37:22;;;;;;;7.70;3.50;;;;;;;17.99;100.00;100980.08;105476;1264;102090;-82
2023/09/30 09:40:08;;;;;;;7.40;3.20;;;;;;;17.99;100.00;100988.25;105604;1262;100164;-84
2023/09/30 09:42:55;;;;;;;8.90;3.60;;;;;;;17.99;100.00;100993.63;105516;1261;97996;-84
2023/09/30 09:45:43;;;;;;;6.60;2.70;;;;;;;18.00;100.00;100998.95;105622;1264;97962;-82
2023/09/30 09:48:28;;;;;;;5.40;2.50;;;;;;;17.98;99.98;101004.48;105760;1260;98051;-83
2023/09/30 09:51:14;;;;;;;7.10;2.40;;;;;;;17.95;99.97;101011.98;105621;1264;101392;-84
2023/09/30 09:54:03;;;;;;;5.00;2.20;;;;;;;17.91;99.83;101018.48;105537;1263;99311;-84
2023/09/30 09:56:49;;;;;;;10.00;2.40;;;;;;;17.90;99.80;101021.84;105718;1264;98451;-84
2023/09/30 09:59:36;;;;;;;4.20;1.50;;;;;;;17.86;99.72;101020.50;105652;1260;98130;-82
2023/09/30 10:02:22;;;;;;;4.00;1.30;;;;;;;17.82;99.56;101024.54;105575;1261;98503;-83
2023/09/30 10:05:11;;;;;;;5.00;1.60;;;;;;;17.77;99.38;101030.17;105566;1263;102614;-84
2023/09/30 10:08:05;;;;;;;2.30;1.40;;;;;;;17.74;99.35;101033.77;105635;1260;99080;-83
2023/09/30 10:10:51;;;;;;;4.30;1.80;;;;;;;17.71;99.26;101033.98;105587;1261;97966;-83
2023/09/30 10:13:55;;;;;;;2.80;1.60;;;;;;;17.67;99.27;101034.73;105504;1264;97965;-84
2023/09/30 10:16:43;;;;;;;4.20;1.60;;;;;;;17.65;99.41;101042.80;105731;1266;98499;-84
2023/09/30 10:19:31;;;;;;;9.60;2.40;;;;;;;17.63;99.69;101051.36;105678;1260;102780;-82
2023/09/30 10:22:21;;;;;;;13.60;2.40;;;;;;;17.63;99.65;101058.66;105563;1266;99224;-83
2023/09/30 10:25:34;;;;;;;9.30;2.20;;;;;;;17.59;99.60;101060.98;105454;1261;98894;-83
2023/09/30 10:28:44;;;;;;;8.60;2.20;;;;;;;17.57;99.46;101064.38;105476;1263;98555;-84
2023/09/30 10:31:30;;;;;;;8.30;2.40;;;;;;;17.55;99.30;101066.59;105665;1264;98512;-84
2023/09/30 10:34:23;;;;;;;5.40;2.30;;;;;;;17.48;99.35;101069.84;105470;1263;101425;-82
2023/09/30 10:37:24;;;;;;;9.00;3.10;;;;;;;17.41;99.95;101079.13;105642;1264;99164;-83
2023/09/30 10:40:27;;;;;;;8.00;2.10;;;;;;;17.35;100.00;101080.52;105612;1261;99708;-84
2023/09/30 10:43:30;;;;;;;8.20;2.50;;;;;;;17.31;100.00;101080.16;105624;1264;98045;-83
2023/09/30 10:46:26;;;;;;;4.20;1.90;;;;;;;17.31;100.00;101083.49;105710;1262;98350;-84
2023/09/30 10:49:24;;;;;;;6.20;2.50;;;;;;;17.32;100.00;101089.83;105797;1261;101450;-83
2023/09/30 10:52:10;;;;;;;8.50;2.20;;;;;;;17.32;100.00;101084.74;105650;1261;99143;-82
2023/09/30 10:55:03;;;;;;;7.00;2.10;;;;;;;17.37;100.00;101090.17;105737;1262;98048;-82
2023/09/30 10:57:52;;;;;;;7.80;3.00;;;;;;;17.40;100.00;101089.80;105798;1262;98006;-82
2023/09/30 11:00:38;;;;;;;10.20;2.30;;;;;;;17.43;100.00;101091.54;105936;1262;98531;-83
2023/09/30 11:03:24;;;;;;;13.30;2.70;;;;;;;17.44;100.00;101089.36;105785;1264;101318;-83
2023/09/30 11:06:17;;;;;;;7.80;2.30;;;;;;;17.45;100.00;101085.77;105661;1260;99093;-83
2023/09/30 11:09:03;;;;;;;6.00;2.40;;;;;;;17.49;100.00;101081.59;105670;1265;99425;-83
2023/09/30 11:11:53;;;;;;;9.80;2.40;;;;;;;17.57;100.00;101079.17;105673;1262;98109;-83
2023/09/30 11:14:39;;;;;;;6.00;2.80;;;;;;;17.68;100.00;101082.61;105807;1260;98000;-82
2023/09/30 11:17:24;;;;;;;9.30;2.50;;;;;;;17.79;100.00;101088.49;105713;1264;101347;-89
2023/09/30 11:20:12;;;;;;;10.30;2.30;;;;;;;17.89;100.00;101095.48;106197;1265;100284;-82
2023/09/30 11:22:58;;;;;;;10.20;2.30;;;;;;;17.97;99.84;101101.63;105845;1261;98459;-86
2023/09/30 11:25:59;;;;;;;5.90;2.40;;;;;;;18.03;99.41;101106.23;106450;1262;98070;-92
2023/09/30 11:29:05;;;;;;;10.00;2.90;;;;;;;18.05;98.52;101104.30;107049;1261;98996;-91
2023/09/30 11:31:53;;;;;;;9.70;3.70;;;;;;;18.10;97.39;101102.62;106094;1261;101652;-88
2023/09/30 11:34:40;;;;;;;13.20;3.50;;;;;;;18.15;97.31;101096.32;106488;1262;99187;-90
2023/09/30 11:37:33;;;;;;;8.30;3.00;;;;;;;18.21;96.70;101091.09;106705;1266;100176;-88
2023/09/30 11:40:20;;;;;;;9.20;2.70;;;;;;;18.29;96.43;101090.86;106470;1265;97962;-88
2023/09/30 11:44:50;;;;;;;6.80;3.00;;;;;;;18.48;95.50;101090.59;103753;1291;636128;-88
2023/09/30 11:47:37;;;;;;;9.60;3.40;;;;;;;18.49;94.84;101090.67;106282;1269;95751;-88
2023/09/30 11:50:24;;;;;;;10.10;3.00;;;;;;;18.54;94.41;101093.13;106023;1269;95924;-88
2023/09/30 11:53:16;;;;;;;11.10;3.30;;;;;;;18.55;94.09;101088.52;105531;1265;99052;-82
2023/09/30 11:56:07;;;;;;;7.20;3.60;;;;;;;18.55;93.45;101085.35;105967;1266;99115;-86
2023/09/30 11:58:52;;;;;;;5.60;2.60;;;;;;;18.59;93.47;101085.42;105373;1263;402057;-87
2023/09/30 12:01:39;;;;;;;7.10;3.10;;;;;;;18.70;93.82;101084.04;106189;1263;95957;-89
2023/09/30 12:04:25;;;;;;;7.90;4.00;;;;;;;18.84;94.01;101082.02;106698;1251;95982;-85
2023/09/30 12:07:12;;;;;;;14.00;3.80;;;;;;;19.00;93.18;101082.64;106881;1256;98371;-83
2023/09/30 12:09:57;;;;;;;10.00;3.70;;;;;;;19.14;91.80;101079.01;106427;1250;100325;-82
2023/09/30 12:12:44;;;;;;;7.40;3.70;;;;;;;19.23;90.43;101079.79;106678;1251;97799;-83
2023/09/30 12:15:30;;;;;;;6.60;2.90;;;;;;;19.27;87.95;101079.11;106598;1253;95897;-83
2023/09/30 12:18:18;;;;;;;8.60;2.90;;;;;;;19.27;85.42;101079.40;106488;1256;95791;-83
2023/09/30 12:21:06;;;;;;;9.60;3.10;;;;;;;19.29;82.90;101086.81;106955;1254;98724;-87
2023/09/30 12:23:52;;;;;;;11.90;3.50;;;;;;;19.26;81.66;101087.67;106599;1259;100406;-87
2023/09/30 12:26:41;;;;;;;9.00;2.50;;;;;;;19.24;80.24;101093.06;106304;1255;106397;-87
2023/09/30 12:29:31;;;;;;;5.60;2.60;;;;;;;19.23;79.97;101093.53;106444;1256;95838;-89
2023/09/30 12:32:17;;;;;;;11.30;3.10;;;;;;;19.28;79.46;101101.24;106236;1260;95822;-88
2023/09/30 12:35:04;;;;;;;10.50;2.70;;;;;;;19.28;78.66;101105.12;106395;1260;98723;-90